N371JC RCSS-RPLC
Flight info
| Callsign | N371JC |
|---|---|
| Flight time | 0h 54m |
| Altitude | 43000 |
| Route | YILAN1A YILAN B591 HCN M646 SANRO W4 MALIB MALIB3P |
| Aircraft | GLF5/M-SBDE2E3FGHIJ3J4J5P2RWXY/LB1D1 |
Departure
| Time | 2026-05-08 09:07 |
|---|---|
| Airport | Taipei Songshan International Airport (RCSS) |
Arrival
| Time | 2026-05-08 10:02 |
|---|---|
| Airport | Clark International Airport / Clark Air Base (RPLC) |
| Time | Latitude | Longitude | Altitude | Speed | Heading |
|---|---|---|---|---|---|
| 2026-05-08 08:44 | 25.06717 | 121.55424 | 22 ft | 0 kts | 185° |
| 2026-05-08 09:00 | 25.06716 | 121.55424 | 22 ft | 1 kts | 184° |
| 2026-05-08 09:00 | 25.06704 | 121.55413 | 23 ft | 4 kts | 245° |
| 2026-05-08 09:01 | 25.06731 | 121.55379 | 22 ft | 6 kts | 349° |
| 2026-05-08 09:01 | 25.06784 | 121.55359 | 20 ft | 10 kts | 302° |
| 2026-05-08 09:01 | 25.06790 | 121.55274 | 21 ft | 10 kts | 271° |
| 2026-05-08 09:01 | 25.06796 | 121.55197 | 22 ft | 8 kts | 275° |
| 2026-05-08 09:02 | 25.06757 | 121.55159 | 22 ft | 8 kts | 241° |
| 2026-05-08 09:02 | 25.06745 | 121.55079 | 23 ft | 10 kts | 270° |
| 2026-05-08 09:02 | 25.06745 | 121.55005 | 24 ft | 8 kts | 269° |
| 2026-05-08 09:02 | 25.06743 | 121.54951 | 26 ft | 6 kts | 267° |
| 2026-05-08 09:03 | 25.06739 | 121.54864 | 29 ft | 12 kts | 267° |
| 2026-05-08 09:03 | 25.06735 | 121.54783 | 33 ft | 9 kts | 265° |
| 2026-05-08 09:03 | 25.06671 | 121.54749 | 36 ft | 11 kts | 179° |
| 2026-05-08 09:03 | 25.06594 | 121.54743 | 36 ft | 9 kts | 220° |
| 2026-05-08 09:04 | 25.06601 | 121.54678 | 37 ft | 7 kts | 296° |
| 2026-05-08 09:04 | 25.06626 | 121.54628 | 38 ft | 9 kts | 300° |
| 2026-05-08 09:04 | 25.06675 | 121.54551 | 37 ft | 14 kts | 313° |
| 2026-05-08 09:04 | 25.06745 | 121.54451 | 33 ft | 17 kts | 302° |
| 2026-05-08 09:05 | 25.06791 | 121.54367 | 31 ft | 18 kts | 301° |
| 2026-05-08 09:05 | 25.06808 | 121.54336 | 31 ft | 18 kts | 301° |
| 2026-05-08 09:05 | 25.06871 | 121.54223 | 33 ft | 16 kts | 302° |
| 2026-05-08 09:05 | 25.06910 | 121.54117 | 34 ft | 14 kts | 281° |
| 2026-05-08 09:06 | 25.06917 | 121.54010 | 33 ft | 14 kts | 286° |
| 2026-05-08 09:06 | 25.06992 | 121.54011 | 32 ft | 12 kts | 70° |
| 2026-05-08 09:06 | 25.06998 | 121.54096 | 35 ft | 13 kts | 91° |
| 2026-05-08 09:06 | 25.06992 | 121.54357 | 33 ft | 59 kts | 91° |
| 2026-05-08 09:07 | 25.06968 | 121.55007 | 26 ft | 111 kts | 92° |
| 2026-05-08 09:07 | 25.06934 | 121.55978 | 214 ft | 130 kts | 91° |
| 2026-05-08 09:07 | 25.06900 | 121.56926 | 802 ft | 124 kts | 88° |
| 2026-05-08 09:07 | 25.06870 | 121.57872 | 1282 ft | 141 kts | 85° |
| 2026-05-08 09:08 | 25.06838 | 121.59033 | 2238 ft | 161 kts | 86° |
| 2026-05-08 09:08 | 25.06804 | 121.60422 | 2868 ft | 200 kts | 88° |
| 2026-05-08 09:08 | 25.06754 | 121.62101 | 3640 ft | 234 kts | 89° |
| 2026-05-08 09:08 | 25.06452 | 121.63924 | 4585 ft | 263 kts | 115° |
| 2026-05-08 09:09 | 25.05382 | 121.65555 | 5884 ft | 273 kts | 128° |
| 2026-05-08 09:09 | 25.04197 | 121.67235 | 6926 ft | 282 kts | 128° |
| 2026-05-08 09:09 | 25.02961 | 121.68996 | 7142 ft | 302 kts | 128° |
| 2026-05-08 09:09 | 25.01739 | 121.70753 | 8796 ft | 292 kts | 129° |
| 2026-05-08 09:10 | 25.00344 | 121.72445 | 9894 ft | 299 kts | 148° |
| 2026-05-08 09:10 | 24.98405 | 121.73341 | 10568 ft | 321 kts | 168° |
| 2026-05-08 09:10 | 24.96118 | 121.73882 | 11104 ft | 349 kts | 171° |
| 2026-05-08 09:10 | 24.93703 | 121.74448 | 12017 ft | 363 kts | 170° |
| 2026-05-08 09:11 | 24.91221 | 121.75039 | 13082 ft | 371 kts | 171° |
| 2026-05-08 09:11 | 24.88666 | 121.75651 | 14084 ft | 380 kts | 171° |
| 2026-05-08 09:11 | 24.86058 | 121.76275 | 15179 ft | 385 kts | 171° |
| 2026-05-08 09:11 | 24.83405 | 121.76911 | 16147 ft | 394 kts | 171° |
| 2026-05-08 09:12 | 24.80723 | 121.77554 | 17115 ft | 400 kts | 171° |
| 2026-05-08 09:12 | 24.77985 | 121.78210 | 18076 ft | 407 kts | 171° |
| 2026-05-08 09:12 | 24.75184 | 121.78885 | 19051 ft | 413 kts | 169° |
| 2026-05-08 09:12 | 24.72475 | 121.80082 | 19976 ft | 423 kts | 154° |
| 2026-05-08 09:13 | 24.69856 | 121.81683 | 20954 ft | 429 kts | 153° |
| 2026-05-08 09:13 | 24.67202 | 121.83312 | 21869 ft | 435 kts | 153° |
| 2026-05-08 09:13 | 24.64552 | 121.84936 | 22786 ft | 441 kts | 153° |
| 2026-05-08 09:13 | 24.61823 | 121.86607 | 23583 ft | 451 kts | 153° |
| 2026-05-08 09:14 | 24.59022 | 121.88321 | 24453 ft | 459 kts | 153° |
| 2026-05-08 09:14 | 24.56161 | 121.90072 | 25366 ft | 466 kts | 153° |
| 2026-05-08 09:14 | 24.53216 | 121.91872 | 26185 ft | 476 kts | 154° |
| 2026-05-08 09:14 | 24.50257 | 121.93681 | 27003 ft | 484 kts | 154° |
| 2026-05-08 09:15 | 24.47324 | 121.95483 | 27837 ft | 489 kts | 154° |
| 2026-05-08 09:15 | 24.44327 | 121.97324 | 28509 ft | 498 kts | 154° |
| 2026-05-08 09:15 | 24.41256 | 121.99200 | 29270 ft | 504 kts | 154° |
| 2026-05-08 09:15 | 24.38130 | 122.00994 | 29939 ft | 506 kts | 161° |
| 2026-05-08 09:16 | 24.34745 | 122.01841 | 30598 ft | 499 kts | 181° |
| 2026-05-08 09:16 | 24.31308 | 122.01517 | 31290 ft | 490 kts | 199° |
| 2026-05-08 09:16 | 24.28052 | 122.00500 | 32184 ft | 486 kts | 202° |
| 2026-05-08 09:16 | 24.13036 | 121.95606 | 35280 ft | 488 kts | 202° |
| 2026-05-08 09:17 | 23.99929 | 121.91323 | 36341 ft | 492 kts | 202° |
| 2026-05-08 09:17 | 23.89496 | 121.87949 | 39865 ft | 494 kts | 202° |
| 2026-05-08 09:17 | 23.86160 | 121.86867 | 39973 ft | 493 kts | 201° |
| 2026-05-08 09:17 | 23.62201 | 121.79095 | 39989 ft | 494 kts | 201° |
| 2026-05-08 09:18 | 23.09024 | 121.61964 | 39888 ft | 495 kts | 201° |
| 2026-05-08 09:18 | 22.91294 | 121.56285 | 39960 ft | 495 kts | 201° |
| 2026-05-08 09:18 | 22.84678 | 121.54170 | 39950 ft | 495 kts | 200° |
| 2026-05-08 09:19 | 22.78062 | 121.52062 | 39944 ft | 494 kts | 200° |
| 2026-05-08 09:19 | 22.72461 | 121.50223 | 39939 ft | 492 kts | 204° |
| 2026-05-08 09:20 | 22.69120 | 121.48897 | 39935 ft | 491 kts | 206° |
| 2026-05-08 09:20 | 22.66215 | 121.47105 | 39973 ft | 481 kts | 221° |
| 2026-05-08 09:20 | 22.63524 | 121.44862 | 39917 ft | 484 kts | 223° |
| 2026-05-08 09:21 | 22.58181 | 121.40359 | 39943 ft | 484 kts | 223° |
| 2026-05-08 09:23 | 22.39378 | 121.24474 | 39937 ft | 485 kts | 223° |
| 2026-05-08 09:23 | 22.34103 | 121.19904 | 39939 ft | 484 kts | 223° |
| 2026-05-08 09:24 | 22.28812 | 121.15352 | 39927 ft | 485 kts | 223° |
| 2026-05-08 09:24 | 22.23526 | 121.10796 | 39922 ft | 486 kts | 223° |
| 2026-05-08 09:25 | 22.18177 | 121.06185 | 39929 ft | 485 kts | 223° |
| 2026-05-08 09:25 | 22.12884 | 121.01626 | 39914 ft | 486 kts | 222° |
| 2026-05-08 09:25 | 21.93912 | 120.85329 | 40051 ft | 486 kts | 222° |
| 2026-05-08 09:26 | 21.90956 | 120.83436 | 39871 ft | 495 kts | 203° |
| 2026-05-08 09:26 | 21.87579 | 120.82693 | 39907 ft | 502 kts | 184° |
| 2026-05-08 09:26 | 21.84071 | 120.83003 | 39957 ft | 504 kts | 176° |
| 2026-05-08 09:27 | 21.77030 | 120.82855 | 39887 ft | 505 kts | 186° |
| 2026-05-08 09:27 | 21.70006 | 120.82253 | 39899 ft | 505 kts | 187° |
| 2026-05-08 09:28 | 21.63032 | 120.81615 | 39905 ft | 503 kts | 187° |
| 2026-05-08 09:28 | 21.56030 | 120.80970 | 39903 ft | 502 kts | 187° |
| 2026-05-08 09:29 | 21.49074 | 120.80331 | 39904 ft | 502 kts | 187° |
| 2026-05-08 09:29 | 21.42031 | 120.79684 | 39905 ft | 503 kts | 187° |
| 2026-05-08 09:30 | 21.35001 | 120.79038 | 39904 ft | 502 kts | 187° |
| 2026-05-08 09:30 | 21.28008 | 120.78397 | 39907 ft | 503 kts | 187° |
| 2026-05-08 09:31 | 21.20995 | 120.77755 | 39906 ft | 502 kts | 187° |
| 2026-05-08 09:31 | 21.14023 | 120.77116 | 39907 ft | 502 kts | 186° |
| 2026-05-08 09:32 | 21.07054 | 120.76479 | 39905 ft | 502 kts | 186° |
| 2026-05-08 09:32 | 21.00090 | 120.75844 | 39909 ft | 501 kts | 186° |
| 2026-05-08 09:33 | 20.93129 | 120.75266 | 39905 ft | 501 kts | 186° |
| 2026-05-08 09:33 | 20.86172 | 120.74692 | 39895 ft | 500 kts | 186° |
| 2026-05-08 09:34 | 20.79218 | 120.74117 | 39896 ft | 501 kts | 186° |
| 2026-05-08 09:34 | 20.72289 | 120.73546 | 39899 ft | 501 kts | 186° |
| 2026-05-08 09:35 | 20.65241 | 120.72965 | 39892 ft | 500 kts | 185° |
| 2026-05-08 09:35 | 20.58283 | 120.72392 | 39892 ft | 499 kts | 185° |
| 2026-05-08 09:36 | 20.51308 | 120.71819 | 39889 ft | 498 kts | 185° |
| 2026-05-08 09:36 | 19.66556 | 120.64894 | 39844 ft | 497 kts | 185° |
| 2026-05-08 09:37 | 19.51321 | 120.63653 | 39862 ft | 495 kts | 185° |
| 2026-05-08 09:37 | 19.44463 | 120.63096 | 39864 ft | 495 kts | 185° |
| 2026-05-08 09:38 | 19.37601 | 120.62540 | 39864 ft | 495 kts | 185° |
| 2026-05-08 09:38 | 19.30706 | 120.61981 | 39866 ft | 495 kts | 185° |
| 2026-05-08 09:39 | 19.23825 | 120.61424 | 39863 ft | 495 kts | 185° |
| 2026-05-08 09:39 | 19.16918 | 120.60865 | 39864 ft | 495 kts | 185° |
| 2026-05-08 09:40 | 19.10026 | 120.60308 | 39864 ft | 495 kts | 185° |
| 2026-05-08 09:40 | 19.03147 | 120.59753 | 39864 ft | 494 kts | 185° |
| 2026-05-08 09:41 | 18.07340 | 120.52048 | 39848 ft | 493 kts | 185° |
| 2026-05-08 09:41 | 17.57750 | 120.44066 | 39890 ft | 492 kts | 170° |
| 2026-05-08 09:42 | 17.50961 | 120.44819 | 39964 ft | 493 kts | 184° |
| 2026-05-08 09:42 | 17.29989 | 120.42554 | 39819 ft | 495 kts | 187° |
| 2026-05-08 09:43 | 17.10946 | 120.40276 | 39593 ft | 482 kts | 186° |
| 2026-05-08 09:43 | 17.07603 | 120.39884 | 39014 ft | 478 kts | 186° |
| 2026-05-08 09:43 | 17.00095 | 120.39003 | 37877 ft | 475 kts | 186° |
| 2026-05-08 09:43 | 16.96826 | 120.38619 | 37341 ft | 474 kts | 186° |
| 2026-05-08 09:44 | 16.93539 | 120.38234 | 36827 ft | 475 kts | 186° |
| 2026-05-08 09:44 | 16.90202 | 120.37843 | 36285 ft | 477 kts | 186° |
| 2026-05-08 09:44 | 16.86904 | 120.37456 | 35761 ft | 478 kts | 186° |
| 2026-05-08 09:44 | 16.83616 | 120.37071 | 35245 ft | 479 kts | 186° |
| 2026-05-08 09:45 | 16.80255 | 120.36677 | 34703 ft | 480 kts | 186° |
| 2026-05-08 09:45 | 16.76950 | 120.36289 | 34182 ft | 482 kts | 186° |
| 2026-05-08 09:45 | 16.73612 | 120.35922 | 33631 ft | 483 kts | 182° |
| 2026-05-08 09:45 | 16.70197 | 120.36151 | 33104 ft | 483 kts | 172° |
| 2026-05-08 09:46 | 16.66855 | 120.36595 | 32575 ft | 485 kts | 172° |
| 2026-05-08 09:46 | 16.48745 | 120.38998 | 29840 ft | 487 kts | 172° |
| 2026-05-08 09:46 | 16.26415 | 120.41943 | 25868 ft | 472 kts | 172° |
| 2026-05-08 09:46 | 16.23193 | 120.42371 | 25514 ft | 459 kts | 172° |
| 2026-05-08 09:47 | 16.20005 | 120.42792 | 25044 ft | 452 kts | 172° |
| 2026-05-08 09:47 | 16.16890 | 120.43203 | 24554 ft | 447 kts | 172° |
| 2026-05-08 09:47 | 15.91659 | 120.46528 | 20544 ft | 436 kts | 172° |
| 2026-05-08 09:47 | 15.88716 | 120.46913 | 20022 ft | 422 kts | 172° |
| 2026-05-08 09:48 | 15.85820 | 120.47294 | 19545 ft | 414 kts | 172° |
| 2026-05-08 09:48 | 15.82969 | 120.47669 | 19100 ft | 412 kts | 172° |
| 2026-05-08 09:48 | 15.80100 | 120.48045 | 18645 ft | 410 kts | 172° |
| 2026-05-08 09:48 | 15.77271 | 120.48417 | 18177 ft | 407 kts | 172° |
| 2026-05-08 09:49 | 15.74466 | 120.48785 | 17733 ft | 405 kts | 172° |
| 2026-05-08 09:49 | 15.71676 | 120.49152 | 17283 ft | 403 kts | 171° |
| 2026-05-08 09:49 | 15.68869 | 120.49520 | 16835 ft | 400 kts | 171° |
| 2026-05-08 09:49 | 15.66116 | 120.49879 | 16412 ft | 397 kts | 171° |
| 2026-05-08 09:50 | 15.63352 | 120.50239 | 15973 ft | 393 kts | 171° |
| 2026-05-08 09:50 | 15.60633 | 120.50592 | 15542 ft | 391 kts | 171° |
| 2026-05-08 09:50 | 15.57933 | 120.50943 | 15109 ft | 388 kts | 171° |
| 2026-05-08 09:50 | 15.55254 | 120.51291 | 14669 ft | 385 kts | 171° |
| 2026-05-08 09:51 | 15.52581 | 120.51638 | 14244 ft | 383 kts | 171° |
| 2026-05-08 09:51 | 15.49917 | 120.51984 | 13814 ft | 381 kts | 171° |
| 2026-05-08 09:51 | 15.47255 | 120.52330 | 13397 ft | 378 kts | 171° |
| 2026-05-08 09:51 | 15.44641 | 120.52672 | 12972 ft | 376 kts | 171° |
| 2026-05-08 09:52 | 15.42061 | 120.53187 | 12528 ft | 371 kts | 158° |
| 2026-05-08 09:52 | 15.39925 | 120.54638 | 12049 ft | 364 kts | 132° |
| 2026-05-08 09:52 | 15.38626 | 120.56800 | 11568 ft | 357 kts | 110° |
| 2026-05-08 09:52 | 15.37782 | 120.59220 | 11066 ft | 355 kts | 108° |
| 2026-05-08 09:53 | 15.36967 | 120.61605 | 10432 ft | 351 kts | 108° |
| 2026-05-08 09:53 | 15.36149 | 120.63974 | 9803 ft | 345 kts | 108° |
| 2026-05-08 09:53 | 15.35343 | 120.66296 | 9211 ft | 341 kts | 108° |
| 2026-05-08 09:53 | 15.34539 | 120.68597 | 8494 ft | 326 kts | 108° |
| 2026-05-08 09:54 | 15.33804 | 120.70688 | 7830 ft | 297 kts | 108° |
| 2026-05-08 09:54 | 15.33300 | 120.72665 | 7217 ft | 284 kts | 88° |
| 2026-05-08 09:54 | 15.33807 | 120.74612 | 6642 ft | 283 kts | 58° |
| 2026-05-08 09:54 | 15.35250 | 120.75983 | 5949 ft | 289 kts | 26° |
| 2026-05-08 09:55 | 15.37184 | 120.76366 | 5222 ft | 276 kts | 356° |
| 2026-05-08 09:55 | 15.38837 | 120.75664 | 4505 ft | 250 kts | 320° |
| 2026-05-08 09:55 | 15.39694 | 120.74168 | 3806 ft | 241 kts | 281° |
| 2026-05-08 09:55 | 15.39475 | 120.72505 | 3133 ft | 237 kts | 243° |
| 2026-05-08 09:56 | 15.38658 | 120.71049 | 2447 ft | 234 kts | 237° |
| 2026-05-08 09:56 | 15.37827 | 120.69638 | 2097 ft | 227 kts | 237° |
| 2026-05-08 09:56 | 15.37029 | 120.68245 | 2081 ft | 215 kts | 238° |
| 2026-05-08 09:56 | 15.36280 | 120.66946 | 2149 ft | 206 kts | 238° |
| 2026-05-08 09:57 | 15.34826 | 120.64430 | 2082 ft | 200 kts | 238° |
| 2026-05-08 09:57 | 15.34111 | 120.63194 | 2087 ft | 200 kts | 238° |
| 2026-05-08 09:57 | 15.33256 | 120.62086 | 2072 ft | 196 kts | 210° |
| 2026-05-08 09:58 | 15.32026 | 120.61533 | 2108 ft | 190 kts | 198° |
| 2026-05-08 09:58 | 15.30824 | 120.61058 | 2083 ft | 179 kts | 198° |
| 2026-05-08 09:58 | 15.29663 | 120.60600 | 2081 ft | 175 kts | 198° |
| 2026-05-08 09:58 | 15.28509 | 120.60146 | 2079 ft | 172 kts | 198° |
| 2026-05-08 09:59 | 15.27401 | 120.59708 | 1885 ft | 164 kts | 198° |
| 2026-05-08 09:59 | 15.26413 | 120.59315 | 1677 ft | 141 kts | 197° |
| 2026-05-08 09:59 | 15.25512 | 120.58960 | 1469 ft | 132 kts | 197° |
| 2026-05-08 09:59 | 15.24670 | 120.58630 | 1338 ft | 129 kts | 197° |
| 2026-05-08 10:00 | 15.23818 | 120.58302 | 1145 ft | 128 kts | 197° |
| 2026-05-08 10:00 | 15.22991 | 120.57975 | 1025 ft | 127 kts | 198° |
| 2026-05-08 10:00 | 15.22171 | 120.57649 | 861 ft | 125 kts | 197° |
| 2026-05-08 10:00 | 15.21355 | 120.57330 | 744 ft | 125 kts | 197° |
| 2026-05-08 10:01 | 15.20546 | 120.57012 | 595 ft | 124 kts | 197° |
| 2026-05-08 10:01 | 15.19750 | 120.56698 | 477 ft | 114 kts | 197° |
| 2026-05-08 10:01 | 15.19145 | 120.56461 | 470 ft | 64 kts | 199° |
| 2026-05-08 10:01 | 15.18678 | 120.56278 | 470 ft | 63 kts | 201° |
| 2026-05-08 10:02 | 15.18308 | 120.56132 | 470 ft | 40 kts | 201° |
| 2026-05-08 10:02 | 15.18148 | 120.56055 | 470 ft | 17 kts | 234° |
| 2026-05-08 10:02 | 15.18167 | 120.55944 | 470 ft | 15 kts | 290° |
| 2026-05-08 10:02 | 15.18206 | 120.55842 | 470 ft | 15 kts | 291° |
| 2026-05-08 10:03 | 15.18243 | 120.55742 | 470 ft | 14 kts | 291° |
| 2026-05-08 10:03 | 15.18278 | 120.55647 | 470 ft | 13 kts | 291° |
| 2026-05-08 10:03 | 15.18311 | 120.55557 | 471 ft | 13 kts | 291° |
| 2026-05-08 10:03 | 15.18345 | 120.55466 | 471 ft | 13 kts | 291° |
| 2026-05-08 10:04 | 15.18379 | 120.55375 | 471 ft | 13 kts | 291° |
| 2026-05-08 10:04 | 15.18411 | 120.55290 | 471 ft | 12 kts | 291° |
| 2026-05-08 10:04 | 15.18442 | 120.55208 | 471 ft | 11 kts | 291° |
| 2026-05-08 10:04 | 15.18471 | 120.55129 | 471 ft | 11 kts | 291° |
| 2026-05-08 10:05 | 15.18476 | 120.55116 | 471 ft | 11 kts | 291° |
| 2026-05-08 10:05 | 15.18487 | 120.55077 | 471 ft | 10 kts | 268° |